createdAt,value
2022-08-14T00:00:37.160Z,79.71
2022-08-14T00:01:37.313Z,79.41
2022-08-14T00:02:37.294Z,80.54
2022-08-14T00:03:37.114Z,79.54
2022-08-14T00:04:44.595Z,80.85
2022-08-14T00:05:38.107Z,81.85
2022-08-14T00:06:38.102Z,82.85
2022-08-14T00:07:42.083Z,83.19
2022-08-14T00:08:43.591Z,83.69
2022-08-14T00:09:55.919Z,84.09
2022-08-14T00:10:52.614Z,84.59
2022-08-14T00:11:38.051Z,85.69
2022-08-14T00:12:39.616Z,86.64
2022-08-14T00:13:36.982Z,87.34
2022-08-14T00:14:37.053Z,87.94
2022-08-14T00:15:43.675Z,88.64
2022-08-14T00:16:41.548Z,88.64
2022-08-14T00:17:48.125Z,88.99
2022-08-14T00:19:18.321Z,89.29
2022-08-14T00:19:37.914Z,89.49
2022-08-14T00:20:42.958Z,89.49
2022-08-14T00:21:37.977Z,89.89
2022-08-14T00:22:56.040Z,90.64
2022-08-14T00:23:37.911Z,91.74
2022-08-14T00:24:36.874Z,92.14
2022-08-14T00:25:41.863Z,92.54
2022-08-14T00:26:36.826Z,92.34
2022-08-14T00:27:37.713Z,92.58
2022-08-14T00:28:37.187Z,92.69
2022-08-14T00:29:39.966Z,92.89
2022-08-14T00:30:36.808Z,92.79
2022-08-14T00:31:45.732Z,92.89
2022-08-14T00:32:51.793Z,93.29
2022-08-14T00:33:50.852Z,93.69
2022-08-14T00:34:46.345Z,93.79
2022-08-14T00:36:35.040Z,93.89
2022-08-14T00:36:49.126Z,93.99
2022-08-14T00:37:37.681Z,94.20
2022-08-14T00:38:36.699Z,94.39
2022-08-14T00:39:36.758Z,94.59
2022-08-14T00:40:36.685Z,94.54
2022-08-14T00:41:36.650Z,95.24
2022-08-14T00:42:55.575Z,95.64
2022-08-14T00:43:37.610Z,95.84
2022-08-14T00:44:36.643Z,96.04
2022-08-14T00:45:37.095Z,96.35
2022-08-14T00:46:36.582Z,96.55
2022-08-14T00:47:43.033Z,96.65
2022-08-14T00:48:38.282Z,96.75
2022-08-14T00:49:42.706Z,96.89
2022-08-14T00:50:37.510Z,97.00
2022-08-14T00:51:38.261Z,97.20
2022-08-14T00:52:36.537Z,97.40
2022-08-14T00:53:36.465Z,97.50
2022-08-14T00:54:36.490Z,97.60
2022-08-14T00:55:36.523Z,97.70
2022-08-14T00:56:36.448Z,97.70
2022-08-14T00:57:36.421Z,97.80
2022-08-14T00:58:36.464Z,97.90
2022-08-14T00:59:37.487Z,97.90
2022-08-14T01:00:47.257Z,97.50
2022-08-14T01:01:37.431Z,97.24
2022-08-14T01:02:36.386Z,97.24
2022-08-14T01:03:36.333Z,97.44
2022-08-14T01:04:37.850Z,97.64
2022-08-14T01:05:41.711Z,97.75
2022-08-14T01:06:37.291Z,98.05
2022-08-14T01:07:38.984Z,98.05
2022-08-14T01:08:57.369Z,98.15
2022-08-14T01:09:37.365Z,98.05
2022-08-14T01:10:38.418Z,97.85
2022-08-14T01:11:36.389Z,97.95
2022-08-14T01:12:40.403Z,98.05
2022-08-14T01:13:42.862Z,98.05
2022-08-14T01:14:37.206Z,98.15
2022-08-14T01:15:57.925Z,98.25
2022-08-14T01:16:37.167Z,98.25
2022-08-14T01:17:36.213Z,98.25
2022-08-14T01:18:37.154Z,98.25
2022-08-14T01:19:36.294Z,98.35
2022-08-14T01:20:39.438Z,98.35
2022-08-14T01:21:38.772Z,98.35
2022-08-14T01:22:37.125Z,98.35
2022-08-14T01:23:46.628Z,98.35
2022-08-14T01:24:37.106Z,98.35
2022-08-14T01:25:36.063Z,98.25
2022-08-14T01:26:38.675Z,98.25
2022-08-14T01:27:52.747Z,98.35
2022-08-14T01:28:56.422Z,98.35
2022-08-14T01:30:03.453Z,98.45
2022-08-14T01:30:40.018Z,98.45
2022-08-14T01:31:37.117Z,98.55
2022-08-14T01:32:42.346Z,98.55
2022-08-14T01:33:59.355Z,98.55
2022-08-14T01:35:18.446Z,98.55
2022-08-14T01:36:04.012Z,98.45
2022-08-14T01:36:37.074Z,98.45
2022-08-14T01:37:36.074Z,98.60
2022-08-14T01:38:37.109Z,98.60
2022-08-14T01:39:36.021Z,98.70
2022-08-14T01:40:41.127Z,98.70
2022-08-14T01:41:37.171Z,98.80
2022-08-14T01:42:36.360Z,98.80
2022-08-14T01:43:36.056Z,98.90
2022-08-14T01:44:35.817Z,98.90
2022-08-14T01:45:40.469Z,98.70
2022-08-14T01:46:37.124Z,98.60
2022-08-14T01:47:37.330Z,98.60
2022-08-14T01:48:37.628Z,98.60
2022-08-14T01:49:46.271Z,98.70
2022-08-14T01:50:36.747Z,98.80
2022-08-14T01:51:35.713Z,98.80
2022-08-14T01:52:59.127Z,98.90
2022-08-14T01:53:36.774Z,98.80
2022-08-14T01:54:38.125Z,98.80
2022-08-14T01:55:35.743Z,98.80
2022-08-14T01:56:37.310Z,98.70
2022-08-14T01:58:00.938Z,98.70
2022-08-14T01:58:36.743Z,98.70
2022-08-14T01:59:38.248Z,98.70
2022-08-14T02:00:36.280Z,98.70
2022-08-14T02:01:35.671Z,98.80
2022-08-14T02:02:36.913Z,98.90
2022-08-14T02:03:35.567Z,99.00
2022-08-14T02:04:55.007Z,98.90
2022-08-14T02:05:38.705Z,99.00
2022-08-14T02:06:35.568Z,99.00
2022-08-14T02:07:53.515Z,98.70
2022-08-14T02:08:36.531Z,98.70
2022-08-14T02:09:36.492Z,98.80
2022-08-14T02:10:45.922Z,98.70
2022-08-14T02:11:36.527Z,98.70
2022-08-14T02:12:35.585Z,98.80
2022-08-14T02:13:37.089Z,98.80
2022-08-14T02:14:35.455Z,98.60
2022-08-14T02:15:35.444Z,98.50
2022-08-14T02:16:35.408Z,98.50
2022-08-14T02:17:35.401Z,98.50
2022-08-14T02:18:35.379Z,98.50
2022-08-14T02:19:35.419Z,98.60
2022-08-14T02:20:35.879Z,98.70
2022-08-14T02:21:43.369Z,98.80
2022-08-14T02:22:47.591Z,98.80
2022-08-14T02:23:36.463Z,98.90
2022-08-14T02:24:39.014Z,98.90
2022-08-14T02:25:36.345Z,98.90
2022-08-14T02:26:35.284Z,98.90
2022-08-14T02:28:25.584Z,98.90
2022-08-14T02:28:57.391Z,99.00
2022-08-14T02:30:00.354Z,99.00
2022-08-14T02:30:38.206Z,98.80
2022-08-14T02:31:36.081Z,98.80
2022-08-14T02:32:37.304Z,98.80
2022-08-14T02:33:39.391Z,98.90
2022-08-14T02:34:36.424Z,98.90
2022-08-14T02:35:40.517Z,98.90
2022-08-14T02:37:02.386Z,98.90
2022-08-14T02:37:47.665Z,98.70
2022-08-14T02:38:36.198Z,98.70
2022-08-14T02:39:36.224Z,98.70
2022-08-14T02:40:35.150Z,98.70
2022-08-14T02:41:39.033Z,98.60
2022-08-14T02:42:37.023Z,98.50
2022-08-14T02:43:36.783Z,98.60
2022-08-14T02:44:39.692Z,98.70
2022-08-14T02:45:38.284Z,98.70
2022-08-14T02:46:36.015Z,98.70
2022-08-14T02:47:36.061Z,98.80
2022-08-14T02:49:04.523Z,98.90
2022-08-14T02:49:35.984Z,98.80
2022-08-14T02:50:34.953Z,98.70
2022-08-14T02:51:34.949Z,98.80
2022-08-14T02:52:57.843Z,98.90
2022-08-14T02:53:37.426Z,99.00
2022-08-14T02:54:34.944Z,99.10
2022-08-14T02:55:34.933Z,99.10
2022-08-14T02:57:15.334Z,99.10
2022-08-14T02:57:39.783Z,99.00
2022-08-14T02:58:34.849Z,98.80
2022-08-14T02:59:34.853Z,98.80
2022-08-14T03:00:34.932Z,98.80
2022-08-14T03:01:43.508Z,98.70
2022-08-14T03:02:56.027Z,98.80
2022-08-14T03:03:38.771Z,98.80
2022-08-14T03:04:34.804Z,98.80
2022-08-14T03:05:36.885Z,98.80
2022-08-14T03:06:57.091Z,98.80
2022-08-14T03:07:35.831Z,98.80
2022-08-14T03:08:34.766Z,98.80
2022-08-14T03:10:24.709Z,98.80
2022-08-14T03:10:35.697Z,98.80
2022-08-14T03:11:35.252Z,98.80
2022-08-14T03:12:34.698Z,98.90
2022-08-14T03:13:34.698Z,98.80
2022-08-14T03:14:34.697Z,98.90
2022-08-14T03:15:34.656Z,99.00
2022-08-14T03:16:35.412Z,98.90
2022-08-14T03:17:41.222Z,98.80
2022-08-14T03:18:35.651Z,98.80
2022-08-14T03:19:34.572Z,98.90
2022-08-14T03:20:34.621Z,98.90
2022-08-14T03:21:34.560Z,98.90
2022-08-14T03:22:34.572Z,98.90
2022-08-14T03:23:36.523Z,98.90
2022-08-14T03:24:34.509Z,99.00
2022-08-14T03:25:37.931Z,99.00
2022-08-14T03:26:34.494Z,99.10
2022-08-14T03:27:35.333Z,99.10
2022-08-14T03:28:36.608Z,99.00
2022-08-14T03:29:34.445Z,98.90
2022-08-14T03:30:37.047Z,98.90
2022-08-14T03:31:34.454Z,98.90
2022-08-14T03:32:34.493Z,99.00
2022-08-14T03:33:34.463Z,99.10
2022-08-14T03:34:47.803Z,99.10
2022-08-14T03:35:39.700Z,99.10
2022-08-14T03:37:51.035Z,99.10
2022-08-14T03:38:20.949Z,99.20
2022-08-14T03:39:15.115Z,99.20
2022-08-14T03:39:35.413Z,99.20
2022-08-14T03:40:34.388Z,99.20
2022-08-14T03:41:34.299Z,99.30
2022-08-14T03:42:36.686Z,99.20
2022-08-14T03:43:34.307Z,99.20
2022-08-14T03:45:27.495Z,99.10
2022-08-14T03:45:35.689Z,99.20
2022-08-14T03:46:52.124Z,99.20
2022-08-14T03:47:46.462Z,99.20
2022-08-14T03:48:40.331Z,99.30
2022-08-14T03:49:35.200Z,99.35
2022-08-14T03:50:35.240Z,99.30
2022-08-14T03:51:34.153Z,99.40
2022-08-14T03:52:40.585Z,99.40
2022-08-14T03:53:35.130Z,99.51
2022-08-14T03:54:34.120Z,99.40
2022-08-14T03:55:34.121Z,99.40
2022-08-14T03:56:34.134Z,99.45
2022-08-14T03:57:37.191Z,99.45
2022-08-14T03:58:36.189Z,99.45
2022-08-14T03:59:34.110Z,99.45
2022-08-14T04:00:43.844Z,99.45
2022-08-14T04:01:39.144Z,99.45
2022-08-14T04:02:37.628Z,99.35
2022-08-14T04:03:37.363Z,99.35
2022-08-14T04:04:34.000Z,99.35
2022-08-14T04:05:42.730Z,99.35
2022-08-14T04:06:35.026Z,99.35
2022-08-14T04:07:36.094Z,99.45
2022-08-14T04:08:33.927Z,99.55
2022-08-14T04:09:33.916Z,99.55
2022-08-14T04:10:33.936Z,99.55
2022-08-14T04:11:33.904Z,99.55
2022-08-14T04:12:33.896Z,99.55
2022-08-14T04:13:34.630Z,99.45
2022-08-14T04:14:37.263Z,99.45
2022-08-14T04:15:56.063Z,99.45
2022-08-14T04:16:34.958Z,99.45
2022-08-14T04:17:33.882Z,99.45
2022-08-14T04:18:34.118Z,99.45
2022-08-14T04:19:36.345Z,99.40
2022-08-14T04:20:33.770Z,99.40
2022-08-14T04:21:39.959Z,99.51
2022-08-14T04:22:34.767Z,99.51
2022-08-14T04:23:33.901Z,99.40
2022-08-14T04:24:38.325Z,99.40
2022-08-14T04:25:34.717Z,99.30
2022-08-14T04:26:42.882Z,99.30
2022-08-14T04:27:34.713Z,99.40
2022-08-14T04:29:08.916Z,99.40
2022-08-14T04:29:34.664Z,99.30
2022-08-14T04:30:33.645Z,99.30
2022-08-14T04:33:01.074Z,99.35
2022-08-14T04:33:01.502Z,99.30
2022-08-14T04:33:34.612Z,99.30
2022-08-14T04:34:33.619Z,99.35
2022-08-14T04:35:55.430Z,99.35
2022-08-14T04:36:34.601Z,99.25
2022-08-14T04:37:33.595Z,99.25
2022-08-14T04:38:36.960Z,99.25
2022-08-14T04:39:34.641Z,99.35
2022-08-14T04:40:35.329Z,99.45
2022-08-14T04:41:34.564Z,99.45
2022-08-14T04:42:33.520Z,99.45
2022-08-14T04:43:38.650Z,99.45
2022-08-14T04:44:36.320Z,99.45
2022-08-14T04:45:33.460Z,99.45
2022-08-14T04:46:56.735Z,99.45
2022-08-14T04:47:34.436Z,99.45
2022-08-14T04:48:40.993Z,99.45
2022-08-14T04:49:34.465Z,99.51
2022-08-14T04:50:43.472Z,99.30
2022-08-14T04:51:46.404Z,99.30
2022-08-14T04:52:34.452Z,99.20
2022-08-14T04:53:35.527Z,99.10
2022-08-14T04:54:33.404Z,99.00
2022-08-14T04:55:33.322Z,99.00
2022-08-14T04:56:34.517Z,98.80
2022-08-14T04:57:33.325Z,98.80
2022-08-14T04:58:33.967Z,98.80
2022-08-14T04:59:33.281Z,98.80
2022-08-14T05:00:33.273Z,98.75
2022-08-14T05:01:39.662Z,98.75
2022-08-14T05:02:34.658Z,98.75
2022-08-14T05:03:33.374Z,98.75
2022-08-14T05:04:33.225Z,98.65
2022-08-14T05:05:34.194Z,98.65
2022-08-14T05:06:38.336Z,98.71
2022-08-14T05:07:54.453Z,98.91
2022-08-14T05:08:57.377Z,98.71
2022-08-14T05:09:34.134Z,98.30
2022-08-14T05:10:33.141Z,98.00
2022-08-14T05:11:33.117Z,98.00
2022-08-14T05:13:13.680Z,97.96
2022-08-14T05:13:47.557Z,98.05
2022-08-14T05:14:46.730Z,97.96
2022-08-14T05:15:34.099Z,97.96
2022-08-14T05:16:33.099Z,97.96
2022-08-14T05:17:44.230Z,97.85
2022-08-14T05:18:37.448Z,97.91
2022-08-14T05:19:44.341Z,97.71
2022-08-14T05:21:55.132Z,97.31
2022-08-14T05:21:57.280Z,97.31
2022-08-14T05:22:33.977Z,97.20
2022-08-14T05:23:32.959Z,97.31
2022-08-14T05:24:32.963Z,97.00
2022-08-14T05:25:33.714Z,96.91
2022-08-14T05:26:32.910Z,96.91
2022-08-14T05:27:32.942Z,96.30
2022-08-14T05:28:32.902Z,95.80
2022-08-14T05:29:32.898Z,96.41
2022-08-14T05:30:32.868Z,96.41
2022-08-14T05:31:40.457Z,96.41
2022-08-14T05:32:33.875Z,96.10
2022-08-14T05:33:32.887Z,95.90
2022-08-14T05:34:32.877Z,95.80
2022-08-14T05:35:33.297Z,95.40
2022-08-14T05:36:32.827Z,95.60
2022-08-14T05:37:32.776Z,95.86
2022-08-14T05:38:35.242Z,95.45
2022-08-14T05:39:32.794Z,95.45
2022-08-14T05:40:32.797Z,94.85
2022-08-14T05:41:52.458Z,95.36
2022-08-14T05:42:34.198Z,95.41
2022-08-14T05:43:40.882Z,95.41
2022-08-14T05:44:33.709Z,95.61
2022-08-14T05:45:32.746Z,95.01
2022-08-14T05:46:32.659Z,94.71
2022-08-14T05:47:38.984Z,94.90
2022-08-14T05:48:42.756Z,94.71
2022-08-14T05:49:34.445Z,94.81
2022-08-14T05:50:32.690Z,95.01
2022-08-14T05:51:32.621Z,94.40
2022-08-14T05:52:39.180Z,94.40
2022-08-14T05:53:33.656Z,94.90
2022-08-14T05:54:35.482Z,94.51
2022-08-14T05:55:32.548Z,93.80
2022-08-14T05:56:32.554Z,93.76
2022-08-14T05:57:32.530Z,93.16
2022-08-14T05:58:33.843Z,94.16
2022-08-14T05:59:39.409Z,93.55
2022-08-14T06:00:37.195Z,92.46
2022-08-14T06:01:33.472Z,93.46
2022-08-14T06:02:32.445Z,93.46
2022-08-14T06:03:32.473Z,93.86
2022-08-14T06:04:32.426Z,94.01
2022-08-14T06:05:32.465Z,93.01
2022-08-14T06:06:36.628Z,92.91
2022-08-14T06:07:33.405Z,92.61
2022-08-14T06:08:41.051Z,91.91
2022-08-14T06:09:35.905Z,92.81
2022-08-14T06:10:33.396Z,91.81
2022-08-14T06:11:32.404Z,92.61
2022-08-14T06:12:55.736Z,91.31
2022-08-14T06:13:45.155Z,91.97
2022-08-14T06:14:33.360Z,92.57
2022-08-14T06:15:32.277Z,92.77
2022-08-14T06:16:32.337Z,91.86
2022-08-14T06:17:38.874Z,92.97
2022-08-14T06:18:33.237Z,91.06
2022-08-14T06:19:32.328Z,91.36
2022-08-14T06:20:34.266Z,91.02
2022-08-14T06:21:32.281Z,90.72
2022-08-14T06:22:32.270Z,91.92
2022-08-14T06:23:32.180Z,91.22
2022-08-14T06:24:35.639Z,90.02
2022-08-14T06:25:32.145Z,90.52
2022-08-14T06:26:32.331Z,89.82
2022-08-14T06:27:33.992Z,90.62
2022-08-14T06:28:32.129Z,90.17
2022-08-14T06:29:34.811Z,90.67
2022-08-14T06:30:46.117Z,90.17
2022-08-14T06:31:33.092Z,90.08
2022-08-14T06:32:37.717Z,91.08
2022-08-14T06:35:01.437Z,90.28
2022-08-14T06:35:09.122Z,89.37
2022-08-14T06:35:33.026Z,89.14
2022-08-14T06:36:32.037Z,89.03
2022-08-14T06:37:32.038Z,89.03
2022-08-14T06:38:31.988Z,90.73
2022-08-14T06:39:36.412Z,88.83
2022-08-14T06:40:34.401Z,88.73
2022-08-14T06:41:56.662Z,87.93
2022-08-14T06:42:33.523Z,87.73
2022-08-14T06:43:32.619Z,87.23
2022-08-14T06:44:33.069Z,88.64
2022-08-14T06:45:31.921Z,89.49
2022-08-14T06:46:32.428Z,88.09
2022-08-14T06:47:32.013Z,89.05
2022-08-14T06:48:32.739Z,88.25
2022-08-14T06:49:40.522Z,88.25
2022-08-14T06:50:33.792Z,88.25
2022-08-14T06:51:38.797Z,87.51
2022-08-14T06:52:32.822Z,87.61
2022-08-14T06:53:31.820Z,86.81
2022-08-14T06:54:32.104Z,86.01
2022-08-14T06:55:31.748Z,86.11
2022-08-14T06:56:31.779Z,86.01
2022-08-14T06:57:31.822Z,85.65
2022-08-14T06:58:32.307Z,87.30
2022-08-14T06:59:31.777Z,85.61
2022-08-14T07:00:31.733Z,86.51
2022-08-14T07:01:31.752Z,86.61
2022-08-14T07:02:31.677Z,86.51
2022-08-14T07:03:31.671Z,87.66
2022-08-14T07:04:31.656Z,86.36
2022-08-14T07:05:31.631Z,86.66
2022-08-14T07:06:46.694Z,84.97
2022-08-14T07:07:32.695Z,85.87
2022-08-14T07:08:32.170Z,85.27
2022-08-14T07:09:43.718Z,84.93
2022-08-14T07:10:32.606Z,86.33
2022-08-14T07:11:31.604Z,85.63
2022-08-14T07:12:52.184Z,85.09
2022-08-14T07:13:32.628Z,84.39
2022-08-14T07:14:31.560Z,84.19
2022-08-14T07:15:32.636Z,83.19
2022-08-14T07:16:31.504Z,83.89
2022-08-14T07:17:31.976Z,84.39
2022-08-14T07:18:31.589Z,84.69
2022-08-14T07:19:31.602Z,83.65
2022-08-14T07:20:32.189Z,82.06
2022-08-14T07:21:31.421Z,82.65
2022-08-14T07:22:33.136Z,81.30
2022-08-14T07:23:32.416Z,82.75
2022-08-14T07:24:31.885Z,81.56
2022-08-14T07:25:32.590Z,81.85
2022-08-14T07:26:31.417Z,82.56
2022-08-14T07:27:35.940Z,80.26
2022-08-14T07:28:31.350Z,81.26
2022-08-14T07:29:31.332Z,80.76
2022-08-14T07:30:34.244Z,81.36
2022-08-14T07:31:31.355Z,82.65
2022-08-14T07:32:34.113Z,80.66
2022-08-14T07:33:31.337Z,81.12
2022-08-14T07:34:36.175Z,80.72
2022-08-14T07:35:42.933Z,82.51
2022-08-14T07:36:32.314Z,81.77
2022-08-14T07:37:31.253Z,80.78
2022-08-14T07:38:37.446Z,78.79
2022-08-14T07:39:34.353Z,80.58
2022-08-14T07:40:31.188Z,81.24
2022-08-14T07:41:35.569Z,80.24
2022-08-14T07:42:31.173Z,80.41
2022-08-14T07:43:31.158Z,79.81
2022-08-14T07:44:35.604Z,79.87
2022-08-14T07:45:32.048Z,78.94
2022-08-14T07:46:31.098Z,76.06
2022-08-14T07:47:31.159Z,75.72
2022-08-14T07:48:31.164Z,77.01
2022-08-14T07:49:31.158Z,74.69
2022-08-14T07:50:34.400Z,73.69
2022-08-14T07:51:34.256Z,72.41
2022-08-14T07:52:32.176Z,73.14
2022-08-14T07:53:31.052Z,73.83
2022-08-14T07:54:32.082Z,74.93
2022-08-14T07:55:31.144Z,73.93
2022-08-14T07:56:47.993Z,73.83
2022-08-14T07:57:31.989Z,74.03
2022-08-14T07:58:33.890Z,74.73
2022-08-14T07:59:41.958Z,74.23
2022-08-14T08:00:32.000Z,73.10
2022-08-14T08:01:31.035Z,73.50
2022-08-14T08:02:30.953Z,74.03
2022-08-14T08:03:31.032Z,75.42
2022-08-14T08:04:30.908Z,74.29
2022-08-14T08:05:30.918Z,73.99
2022-08-14T08:06:30.875Z,72.31
2022-08-14T08:07:31.132Z,73.50
2022-08-14T08:08:31.371Z,74.89
2022-08-14T08:09:32.447Z,74.95
2022-08-14T08:10:46.279Z,73.36
2022-08-14T08:11:34.914Z,72.97
2022-08-14T08:12:32.374Z,72.24
2022-08-14T08:13:30.777Z,72.83
2022-08-14T08:14:30.782Z,71.64
2022-08-14T08:15:30.720Z,72.63
2022-08-14T08:16:30.748Z,72.63
2022-08-14T08:17:35.079Z,72.73
2022-08-14T08:18:31.715Z,72.20
2022-08-14T08:19:30.730Z,71.41
2022-08-14T08:20:31.693Z,72.50
2022-08-14T08:21:33.203Z,70.42
2022-08-14T08:22:32.478Z,70.91
2022-08-14T08:23:40.015Z,71.04
2022-08-14T08:24:31.633Z,72.89
2022-08-14T08:25:30.654Z,71.01
2022-08-14T08:26:30.661Z,69.53
2022-08-14T08:27:30.588Z,70.02
2022-08-14T08:28:30.575Z,70.02
2022-08-14T08:29:30.585Z,70.62
2022-08-14T08:30:30.566Z,70.09
2022-08-14T08:31:32.656Z,69.39
2022-08-14T08:32:30.555Z,70.09
2022-08-14T08:33:32.202Z,68.10
2022-08-14T08:34:30.489Z,68.30
2022-08-14T08:35:46.319Z,68.90
2022-08-14T08:36:31.470Z,68.80
2022-08-14T08:37:30.627Z,67.80
2022-08-14T08:39:15.267Z,67.94
2022-08-14T08:40:01.588Z,68.53
2022-08-14T08:40:32.484Z,69.62
2022-08-14T08:41:31.634Z,70.51
2022-08-14T08:42:31.656Z,69.03
2022-08-14T08:43:31.392Z,68.20
2022-08-14T08:44:33.018Z,69.69
2022-08-14T08:45:30.374Z,70.54
2022-08-14T08:46:30.371Z,66.98
2022-08-14T08:47:30.312Z,68.17
2022-08-14T08:48:31.590Z,67.57
2022-08-14T08:49:36.144Z,67.14
2022-08-14T08:51:05.663Z,66.95
2022-08-14T08:52:05.722Z,66.06
2022-08-14T08:53:05.694Z,67.64
2022-08-14T08:54:05.600Z,66.55
2022-08-14T08:55:05.673Z,67.44
2022-08-14T08:56:05.652Z,68.43
2022-08-14T08:57:05.594Z,67.74
2022-08-14T08:58:12.558Z,66.35
2022-08-14T08:59:06.534Z,66.75
2022-08-14T09:00:10.004Z,66.65
2022-08-14T09:01:06.607Z,66.25
2022-08-14T09:02:05.522Z,65.66
2022-08-14T09:03:05.663Z,66.16
2022-08-14T09:04:14.824Z,66.85
2022-08-14T09:05:06.496Z,65.95
2022-08-14T09:06:09.613Z,65.76
2022-08-14T09:07:09.963Z,66.55
2022-08-14T09:08:05.434Z,67.02
2022-08-14T09:09:05.399Z,65.59
2022-08-14T09:10:05.426Z,64.31
2022-08-14T09:11:19.289Z,64.70
2022-08-14T09:12:06.387Z,64.41
2022-08-14T09:13:07.310Z,65.17
2022-08-14T09:14:05.556Z,64.58
2022-08-14T09:15:11.489Z,64.48
2022-08-14T09:16:18.907Z,63.79
2022-08-14T09:17:06.301Z,63.85
2022-08-14T09:18:05.330Z,63.65
2022-08-14T09:19:05.274Z,63.06
2022-08-14T09:20:05.329Z,62.93
2022-08-14T09:21:05.243Z,61.35
2022-08-14T09:22:36.041Z,61.25
2022-08-14T09:23:06.213Z,63.23
2022-08-14T09:24:29.689Z,60.73
2022-08-14T09:25:07.196Z,60.46
2022-08-14T09:26:20.680Z,61.65
2022-08-14T09:27:06.795Z,61.45
2022-08-14T09:28:06.103Z,61.82
2022-08-14T09:29:05.145Z,60.04
2022-08-14T09:30:13.160Z,61.22
2022-08-14T09:31:17.236Z,61.03
2022-08-14T09:32:57.650Z,60.24
2022-08-14T09:33:11.518Z,60.73
2022-08-14T09:34:09.398Z,60.53
2022-08-14T09:35:08.518Z,62.21
2022-08-14T09:36:05.080Z,60.33
2022-08-14T09:37:05.050Z,60.83
2022-08-14T09:38:05.083Z,59.84
2022-08-14T09:39:05.038Z,60.56
2022-08-14T09:40:05.025Z,60.86
2022-08-14T09:41:05.021Z,59.58
2022-08-14T09:42:20.906Z,59.45
2022-08-14T09:43:06.001Z,59.74
2022-08-14T09:44:06.464Z,59.94
2022-08-14T09:45:08.410Z,59.34
2022-08-14T09:46:04.983Z,61.39
2022-08-14T09:47:04.962Z,60.50
2022-08-14T09:48:04.925Z,60.70
2022-08-14T09:49:04.888Z,60.01
2022-08-14T09:50:04.934Z,58.89
2022-08-14T09:51:44.594Z,57.42
2022-08-14T09:52:36.050Z,58.80
2022-08-14T09:54:18.949Z,56.13
2022-08-14T09:54:36.053Z,57.84
2022-08-14T09:55:41.447Z,58.04
2022-08-14T09:56:35.961Z,57.45
2022-08-14T09:57:35.002Z,57.34
2022-08-14T09:58:34.953Z,56.98
2022-08-14T09:59:36.371Z,57.28
2022-08-14T10:00:34.920Z,58.75
2022-08-14T10:01:34.906Z,57.54
2022-08-14T10:02:35.267Z,57.93
2022-08-14T10:03:34.986Z,57.22
2022-08-14T10:04:38.381Z,56.73
2022-08-14T10:05:38.041Z,57.02
2022-08-14T10:06:34.835Z,57.74
2022-08-14T10:07:34.856Z,58.73
2022-08-14T10:08:34.815Z,58.14
2022-08-14T10:09:35.441Z,58.53
2022-08-14T10:10:34.796Z,56.65
2022-08-14T10:11:35.367Z,55.99
2022-08-14T10:12:34.798Z,58.59
2022-08-14T10:13:43.082Z,58.59
2022-08-14T10:14:37.095Z,57.47
2022-08-14T10:15:34.828Z,57.37
2022-08-14T10:16:35.057Z,57.47
2022-08-14T10:17:38.477Z,57.77
2022-08-14T10:18:35.712Z,57.64
2022-08-14T10:19:35.542Z,58.04
2022-08-14T10:20:40.827Z,58.40
2022-08-14T10:21:38.678Z,56.53
2022-08-14T10:23:22.316Z,57.12
2022-08-14T10:23:35.687Z,56.43
2022-08-14T10:24:37.284Z,56.33
2022-08-14T10:25:34.618Z,57.02
2022-08-14T10:26:34.617Z,56.04
2022-08-14T10:27:34.565Z,55.24
2022-08-14T10:28:51.499Z,56.13
2022-08-14T10:29:35.594Z,56.53
2022-08-14T10:30:34.568Z,56.33
2022-08-14T10:31:40.111Z,55.41
2022-08-14T10:32:40.194Z,55.71
2022-08-14T10:33:35.484Z,55.32
2022-08-14T10:34:36.638Z,55.71
2022-08-14T10:35:35.252Z,56.50
2022-08-14T10:36:37.011Z,55.22
2022-08-14T10:37:35.604Z,55.12
2022-08-14T10:38:34.515Z,55.64
2022-08-14T10:39:34.537Z,55.32
2022-08-14T10:40:37.810Z,55.62
2022-08-14T10:41:35.388Z,55.49
2022-08-14T10:42:35.403Z,54.50
2022-08-14T10:43:34.399Z,55.49
2022-08-14T10:44:34.356Z,55.29
2022-08-14T10:45:35.866Z,55.12
2022-08-14T10:47:40.512Z,55.94
2022-08-14T10:47:40.875Z,54.82
2022-08-14T10:48:36.967Z,56.73
2022-08-14T10:49:35.285Z,57.42
2022-08-14T10:50:34.300Z,56.40
2022-08-14T10:51:36.333Z,55.51
2022-08-14T10:52:35.317Z,55.81
2022-08-14T10:53:34.260Z,55.62
2022-08-14T10:54:35.867Z,56.01
2022-08-14T10:55:34.252Z,55.81
2022-08-14T10:56:35.156Z,55.91
2022-08-14T10:57:34.175Z,55.19
2022-08-14T10:58:34.544Z,54.99
2022-08-14T10:59:35.559Z,53.99
2022-08-14T11:00:35.704Z,53.99
2022-08-14T11:01:40.999Z,54.47
2022-08-14T11:02:44.717Z,54.16
2022-08-14T11:03:55.182Z,54.64
2022-08-14T11:04:35.122Z,53.86
2022-08-14T11:05:34.080Z,53.56
2022-08-14T11:06:34.133Z,53.17
2022-08-14T11:07:34.121Z,54.64
2022-08-14T11:08:34.275Z,54.45
2022-08-14T11:09:34.037Z,53.96
2022-08-14T11:10:34.056Z,53.24
2022-08-14T11:11:35.954Z,53.05
2022-08-14T11:12:40.281Z,54.35
2022-08-14T11:13:35.009Z,54.52
2022-08-14T11:14:34.004Z,53.05
2022-08-14T11:15:34.289Z,54.13
2022-08-14T11:16:33.932Z,53.44
2022-08-14T11:17:33.945Z,54.03
2022-08-14T11:18:35.934Z,53.31
2022-08-14T11:19:34.970Z,51.35
2022-08-14T11:20:33.886Z,50.78
2022-08-14T11:21:34.112Z,51.30
2022-08-14T11:22:52.410Z,52.09
2022-08-14T11:23:38.607Z,53.44
2022-08-14T11:24:55.048Z,53.14
2022-08-14T11:25:43.402Z,53.93
2022-08-14T11:26:34.823Z,52.95
2022-08-14T11:27:35.283Z,53.76
2022-08-14T11:28:47.683Z,53.27
2022-08-14T11:29:35.325Z,53.36
2022-08-14T11:30:50.077Z,53.27
2022-08-14T11:31:38.709Z,53.07
2022-08-14T11:32:33.718Z,52.58
2022-08-14T11:33:33.793Z,54.45
2022-08-14T11:34:34.807Z,53.27
2022-08-14T11:35:36.988Z,54.16
2022-08-14T11:37:01.975Z,53.96
2022-08-14T11:37:40.289Z,53.83
2022-08-14T11:38:34.789Z,53.74
2022-08-14T11:39:37.090Z,53.54
2022-08-14T11:40:33.698Z,53.14
2022-08-14T11:41:33.623Z,53.74
2022-08-14T11:42:56.328Z,52.65
2022-08-14T11:43:34.697Z,52.72
2022-08-14T11:44:45.561Z,51.81
2022-08-14T11:45:37.207Z,51.64
2022-08-14T11:46:37.460Z,52.43
2022-08-14T11:47:34.992Z,52.72
2022-08-14T11:48:59.622Z,52.92
2022-08-14T11:49:35.108Z,52.33
2022-08-14T11:50:37.271Z,52.23
2022-08-14T11:51:50.765Z,51.84
2022-08-14T11:52:34.481Z,52.72
2022-08-14T11:53:34.490Z,52.60
2022-08-14T11:54:35.172Z,51.81
2022-08-14T11:55:33.442Z,51.30
2022-08-14T11:56:33.486Z,50.71
2022-08-14T11:57:33.418Z,50.42
2022-08-14T11:58:33.423Z,50.44
2022-08-14T11:59:33.995Z,49.33
2022-08-14T12:00:35.956Z,49.53
2022-08-14T12:01:34.433Z,49.75
2022-08-14T12:03:01.520Z,50.34
2022-08-14T12:03:45.969Z,49.95
2022-08-14T12:04:34.443Z,50.24
2022-08-14T12:05:33.425Z,50.04
2022-08-14T12:06:39.362Z,51.15
2022-08-14T12:07:34.291Z,52.03
2022-08-14T12:08:33.307Z,52.01
2022-08-14T12:09:33.290Z,51.72
2022-08-14T12:10:41.023Z,52.01
2022-08-14T12:11:34.319Z,50.61
2022-08-14T12:12:36.179Z,51.52
2022-08-14T12:13:34.685Z,51.30
2022-08-14T12:14:35.393Z,52.08
2022-08-14T12:15:33.268Z,51.79
2022-08-14T12:16:33.179Z,51.10
2022-08-14T12:17:38.126Z,51.50
2022-08-14T12:18:34.223Z,52.18
2022-08-14T12:19:33.819Z,52.38
2022-08-14T12:20:33.134Z,52.67
2022-08-14T12:21:33.130Z,51.67
2022-08-14T12:22:33.168Z,52.06
2022-08-14T12:23:33.093Z,51.37
2022-08-14T12:24:36.551Z,51.07
2022-08-14T12:25:34.736Z,49.48
2022-08-14T12:26:41.109Z,48.43
2022-08-14T12:27:34.046Z,48.62
2022-08-14T12:28:33.924Z,48.72
2022-08-14T12:29:34.791Z,48.91
2022-08-14T12:30:37.710Z,49.82
2022-08-14T12:31:44.201Z,49.51
2022-08-14T12:32:33.977Z,49.41
2022-08-14T12:33:34.031Z,49.87
2022-08-14T12:34:32.955Z,49.19
2022-08-14T12:35:32.972Z,49.19
2022-08-14T12:36:34.050Z,48.11
2022-08-14T12:37:32.925Z,48.52
2022-08-14T12:38:32.901Z,48.62
2022-08-14T12:39:39.912Z,49.70
2022-08-14T12:40:33.888Z,49.38
2022-08-14T12:41:34.476Z,49.46
2022-08-14T12:42:34.644Z,49.46
2022-08-14T12:43:32.844Z,49.46
2022-08-14T12:44:32.877Z,49.16
2022-08-14T12:45:32.922Z,49.07
2022-08-14T12:46:32.801Z,49.55
2022-08-14T12:47:32.794Z,49.58
2022-08-14T12:48:32.820Z,49.58
2022-08-14T12:49:32.760Z,49.77
2022-08-14T12:50:32.863Z,50.16
2022-08-14T12:51:32.747Z,49.38
2022-08-14T12:52:45.180Z,48.99
2022-08-14T12:53:36.248Z,48.79